createdAt,value
2019-05-23T00:01:42.737Z,6.50
2019-05-23T00:04:20.157Z,6.60
2019-05-23T00:06:47.395Z,6.50
2019-05-23T00:09:14.192Z,6.07
2019-05-23T00:11:44.372Z,6.93
2019-05-23T00:14:30.188Z,5.70
2019-05-23T00:16:57.227Z,5.77
2019-05-23T00:19:25.624Z,6.07
2019-05-23T00:21:52.303Z,5.80
2019-05-23T00:24:19.249Z,6.10
2019-05-23T00:26:46.460Z,6.40
2019-05-23T00:29:13.683Z,6.60
2019-05-23T00:31:46.378Z,6.30
2019-05-23T00:34:13.992Z,5.50
2019-05-23T00:36:42.017Z,6.87
2019-05-23T00:39:10.802Z,6.10
2019-05-23T00:41:40.056Z,5.87
2019-05-23T00:44:07.492Z,6.40
2019-05-23T00:46:34.197Z,5.70
2019-05-23T00:49:02.443Z,5.60
2019-05-23T00:51:29.822Z,6.27
2019-05-23T00:53:56.595Z,6.50
2019-05-23T00:56:24.121Z,5.97
2019-05-23T00:58:51.026Z,5.80
2019-05-23T01:01:19.302Z,6.60
2019-05-23T01:03:46.754Z,6.07
2019-05-23T01:06:14.444Z,5.83
2019-05-23T01:08:41.855Z,5.90
2019-05-23T01:11:10.104Z,6.80
2019-05-23T01:13:37.377Z,6.30
2019-05-23T01:16:08.230Z,6.47
2019-05-23T01:18:35.458Z,6.60
2019-05-23T01:21:25.626Z,6.83
2019-05-23T01:24:01.429Z,6.10
2019-05-23T01:26:29.137Z,6.40
2019-05-23T01:28:56.827Z,6.20
2019-05-23T01:31:30.251Z,6.07
2019-05-23T01:33:57.961Z,6.37
2019-05-23T01:36:25.066Z,6.20
2019-05-23T01:38:52.252Z,6.83
2019-05-23T01:41:20.200Z,6.07
2019-05-23T01:43:47.782Z,6.20
2019-05-23T01:46:14.500Z,7.23
2019-05-23T01:48:41.533Z,6.73
2019-05-23T01:51:08.989Z,6.23
2019-05-23T01:53:36.005Z,6.50
2019-05-23T01:56:03.719Z,6.53
2019-05-23T01:58:30.474Z,6.80
2019-05-23T02:00:57.173Z,7.30
2019-05-23T02:03:23.896Z,6.70
2019-05-23T02:05:50.750Z,6.80
2019-05-23T02:08:17.692Z,6.47
2019-05-23T02:10:44.997Z,6.20
2019-05-23T02:13:11.938Z,6.37
2019-05-23T02:15:40.904Z,6.63
2019-05-23T02:18:08.428Z,6.87
2019-05-23T02:20:36.449Z,6.40
2019-05-23T02:25:42.324Z,5.93
2019-05-23T02:28:09.439Z,6.37
2019-05-23T02:30:37.049Z,6.60
2019-05-23T02:33:07.764Z,6.50
2019-05-23T02:35:35.888Z,6.80
2019-05-23T02:38:22.385Z,6.17
2019-05-23T02:40:55.793Z,6.20
2019-05-23T02:43:25.033Z,6.37
2019-05-23T02:45:54.173Z,6.67
2019-05-23T02:48:22.595Z,6.20
2019-05-23T02:50:53.195Z,6.60
2019-05-23T02:53:21.596Z,6.80
2019-05-23T02:55:50.465Z,6.57
2019-05-23T02:58:27.893Z,6.83
2019-05-23T03:01:43.247Z,6.73
2019-05-23T03:04:12.043Z,6.57
2019-05-23T03:06:38.895Z,6.90
2019-05-23T03:09:06.670Z,6.47
2019-05-23T03:11:38.815Z,6.33
2019-05-23T03:14:05.504Z,6.60
2019-05-23T03:16:33.342Z,6.90
2019-05-23T03:19:02.537Z,6.00
2019-05-23T03:21:30.049Z,6.83
2019-05-23T03:23:57.109Z,6.17
2019-05-23T03:26:54.770Z,6.10
2019-05-23T03:29:22.083Z,6.80
2019-05-23T03:31:54.617Z,6.77
2019-05-23T03:34:23.692Z,7.10
2019-05-23T03:36:52.747Z,7.37
2019-05-23T03:39:19.627Z,6.80
2019-05-23T03:41:47.538Z,6.10
2019-05-23T03:44:14.509Z,6.67
2019-05-23T03:46:44.183Z,6.50
2019-05-23T03:49:11.305Z,6.87
2019-05-23T03:51:39.999Z,6.90
2019-05-23T03:54:07.900Z,6.03
2019-05-23T03:56:35.145Z,6.50
2019-05-23T03:59:03.761Z,6.60
2019-05-23T04:01:46.277Z,6.20
2019-05-23T04:04:02.491Z,6.63
2019-05-23T04:06:29.439Z,6.80
2019-05-23T04:08:56.816Z,6.87
2019-05-23T04:11:23.587Z,6.90
2019-05-23T04:13:50.690Z,6.13
2019-05-23T04:16:17.443Z,6.63
2019-05-23T04:18:44.889Z,6.80
2019-05-23T04:21:11.976Z,6.27
2019-05-23T04:23:39.297Z,7.13
2019-05-23T04:26:06.288Z,6.87
2019-05-23T04:28:33.128Z,7.40
2019-05-23T04:31:00.338Z,7.00
2019-05-23T04:33:27.070Z,6.83
2019-05-23T04:35:53.889Z,7.03
2019-05-23T04:38:20.623Z,7.20
2019-05-23T04:40:47.474Z,6.00
2019-05-23T04:43:14.901Z,6.90
2019-05-23T04:45:41.615Z,6.90
2019-05-23T04:48:08.324Z,8.23
2019-05-23T04:50:37.168Z,7.07
2019-05-23T04:53:06.018Z,6.90
2019-05-23T04:55:33.153Z,7.10
2019-05-23T04:58:04.246Z,6.90
2019-05-23T05:00:29.059Z,7.83
2019-05-23T05:02:55.829Z,7.60
2019-05-23T05:05:22.538Z,7.70
2019-05-23T05:07:49.320Z,6.80
2019-05-23T05:10:20.727Z,7.70
2019-05-23T05:12:47.507Z,7.37
2019-05-23T05:15:14.735Z,6.77
2019-05-23T05:17:41.484Z,7.70
2019-05-23T05:20:08.243Z,7.90
2019-05-23T05:22:37.535Z,7.60
2019-05-23T05:25:04.824Z,7.63
2019-05-23T05:27:33.719Z,8.13
2019-05-23T05:30:01.475Z,7.90
2019-05-23T05:32:44.350Z,7.77
2019-05-23T05:34:58.863Z,7.30
2019-05-23T05:37:26.268Z,8.20
2019-05-23T05:39:55.657Z,7.90
2019-05-23T05:42:22.709Z,7.70
2019-05-23T05:44:50.029Z,8.03
2019-05-23T05:47:16.830Z,7.97
2019-05-23T05:49:43.689Z,8.70
2019-05-23T05:52:10.635Z,7.57
2019-05-23T05:54:37.384Z,7.47
2019-05-23T05:57:04.403Z,8.53
2019-05-23T05:59:31.117Z,7.57
2019-05-23T06:01:58.823Z,8.53
2019-05-23T06:04:25.531Z,8.30
2019-05-23T06:07:02.738Z,7.83
2019-05-23T06:09:30.920Z,7.53
2019-05-23T06:11:57.678Z,8.47
2019-05-23T06:14:24.545Z,7.90
2019-05-23T06:16:53.048Z,18.50
2019-05-23T06:19:20.585Z,8.70
2019-05-23T06:21:48.228Z,9.50
2019-05-23T06:24:15.621Z,8.50
2019-05-23T06:26:42.652Z,8.77
2019-05-23T06:29:12.410Z,8.07
2019-05-23T06:31:39.715Z,8.90
2019-05-23T06:34:06.474Z,8.80
2019-05-23T06:36:33.425Z,8.80
2019-05-23T06:39:00.286Z,8.47
2019-05-23T06:41:27.511Z,8.67
2019-05-23T06:43:55.064Z,8.57
2019-05-23T06:46:21.959Z,9.77
2019-05-23T06:48:49.126Z,8.70
2019-05-23T06:51:16.181Z,8.83
2019-05-23T06:53:43.011Z,9.00
2019-05-23T06:56:11.229Z,10.20
2019-05-23T06:58:37.923Z,10.20
2019-05-23T07:01:04.723Z,8.90
2019-05-23T07:03:42.756Z,9.30
2019-05-23T07:06:01.732Z,9.50
2019-05-23T07:08:29.232Z,10.20
2019-05-23T07:10:58.267Z,10.20
2019-05-23T07:13:27.362Z,10.17
2019-05-23T07:15:54.520Z,10.07
2019-05-23T07:18:21.243Z,11.57
2019-05-23T07:20:49.942Z,11.00
2019-05-23T07:23:17.446Z,10.73
2019-05-23T07:25:44.165Z,11.27
2019-05-23T07:28:10.899Z,11.80
2019-05-23T07:30:37.787Z,11.97
2019-05-23T07:33:04.491Z,11.07
2019-05-23T07:35:32.429Z,12.27
2019-05-23T07:37:59.375Z,13.20
2019-05-23T07:40:26.590Z,14.17
2019-05-23T07:42:54.009Z,13.43
2019-05-23T07:45:25.568Z,12.70
2019-05-23T07:47:52.638Z,11.50
2019-05-23T07:50:21.358Z,12.30
2019-05-23T07:52:48.194Z,12.90
2019-05-23T07:55:22.896Z,12.57
2019-05-23T07:57:49.698Z,13.37
2019-05-23T08:00:21.199Z,10.70
2019-05-23T08:02:48.521Z,10.80
2019-05-23T08:05:15.194Z,10.37
2019-05-23T08:07:42.158Z,12.40
2019-05-23T08:10:09.138Z,11.50
2019-05-23T08:12:38.577Z,11.23
2019-05-23T08:15:05.282Z,10.60
2019-05-23T08:17:32.657Z,10.73
2019-05-23T08:19:59.368Z,11.00
2019-05-23T08:22:26.178Z,11.30
2019-05-23T08:24:53.442Z,11.83
2019-05-23T08:27:22.490Z,11.10
2019-05-23T08:29:49.311Z,12.00
2019-05-23T08:32:19.130Z,10.30
2019-05-23T08:34:45.876Z,12.60
2019-05-23T08:37:14.201Z,18.93
2019-05-23T08:39:41.794Z,13.43
2019-05-23T08:42:10.711Z,13.13
2019-05-23T08:44:37.442Z,12.73
2019-05-23T08:47:07.479Z,13.57
2019-05-23T08:49:34.572Z,11.93
2019-05-23T08:52:03.814Z,11.17
2019-05-23T08:54:30.770Z,11.40
2019-05-23T08:56:57.498Z,10.37
2019-05-23T08:59:24.931Z,11.67
2019-05-23T09:01:51.649Z,10.70
2019-05-23T09:04:21.450Z,10.30
2019-05-23T09:06:50.094Z,9.77
2019-05-23T09:09:29.269Z,10.40
2019-05-23T09:11:47.736Z,11.00
2019-05-23T09:14:17.409Z,10.77
2019-05-23T09:16:46.262Z,10.83
2019-05-23T09:19:13.020Z,10.73
2019-05-23T09:21:40.137Z,10.80
2019-05-23T09:24:07.060Z,10.93
2019-05-23T09:26:34.434Z,10.80
2019-05-23T09:29:01.220Z,12.13
2019-05-23T09:31:28.557Z,11.53
2019-05-23T09:33:55.388Z,10.73
2019-05-23T09:36:22.126Z,10.80
2019-05-23T09:38:49.292Z,11.53
2019-05-23T09:41:16.075Z,12.40
2019-05-23T09:43:42.812Z,11.47
2019-05-23T09:46:09.721Z,13.70
2019-05-23T09:48:36.799Z,11.87
2019-05-23T09:51:03.536Z,11.90
2019-05-23T09:53:30.968Z,11.63
2019-05-23T09:55:57.714Z,11.17
2019-05-23T09:58:24.803Z,11.57
2019-05-23T10:00:51.560Z,12.90
2019-05-23T10:03:18.787Z,10.50
2019-05-23T10:05:45.608Z,11.00
2019-05-23T10:08:12.870Z,9.53
2019-05-23T10:10:39.944Z,12.10
2019-05-23T10:13:06.656Z,12.07
2019-05-23T10:15:53.466Z,10.57
2019-05-23T10:18:20.969Z,11.83
2019-05-23T10:20:47.802Z,10.40
2019-05-23T10:23:14.795Z,10.50
2019-05-23T10:25:41.576Z,11.83
2019-05-23T10:28:12.772Z,11.33
2019-05-23T10:30:44.786Z,11.40
2019-05-23T10:33:13.688Z,11.30
2019-05-23T10:35:56.934Z,11.00
2019-05-23T10:38:09.751Z,10.73
2019-05-23T10:40:37.300Z,12.07
2019-05-23T10:43:04.169Z,10.73
2019-05-23T10:45:31.020Z,10.50
2019-05-23T10:47:57.899Z,10.40
2019-05-23T10:50:24.962Z,11.00
2019-05-23T10:52:53.737Z,10.70
2019-05-23T10:55:20.488Z,10.70
2019-05-23T10:57:47.945Z,12.00
2019-05-23T11:00:16.683Z,11.00
2019-05-23T11:02:43.780Z,12.20
2019-05-23T11:05:13.472Z,10.23
2019-05-23T11:07:40.764Z,11.23
2019-05-23T11:10:07.483Z,11.10
2019-05-23T11:12:34.716Z,9.83
2019-05-23T11:15:01.477Z,9.30
2019-05-23T11:17:28.693Z,9.50
2019-05-23T11:19:55.483Z,9.10
2019-05-23T11:22:22.240Z,9.40
2019-05-23T11:24:49.362Z,8.70
2019-05-23T11:27:18.892Z,9.90
2019-05-23T11:29:45.618Z,8.67
2019-05-23T11:32:12.854Z,8.93
2019-05-23T11:34:39.716Z,10.27
2019-05-23T11:37:06.979Z,10.77
2019-05-23T11:39:42.253Z,9.83
2019-05-23T11:42:05.458Z,8.87
2019-05-23T11:44:34.722Z,10.60
2019-05-23T11:47:02.270Z,9.27
2019-05-23T11:49:30.037Z,8.50
2019-05-23T11:51:56.931Z,8.70
2019-05-23T11:54:24.737Z,8.83
2019-05-23T11:56:52.665Z,8.47
2019-05-23T11:59:19.436Z,8.80
2019-05-23T12:02:08.571Z,8.40
2019-05-23T12:04:40.427Z,8.87
2019-05-23T12:07:29.494Z,8.20
2019-05-23T12:09:56.226Z,9.03
2019-05-23T12:12:23.064Z,10.23
2019-05-23T12:14:50.377Z,9.07
2019-05-23T12:17:18.815Z,10.23
2019-05-23T12:19:46.063Z,8.83
2019-05-23T12:22:13.809Z,8.40
2019-05-23T12:24:41.235Z,8.47
2019-05-23T12:27:08.237Z,8.50
2019-05-23T12:29:35.171Z,7.53
2019-05-23T12:32:03.765Z,7.87
2019-05-23T12:34:30.854Z,7.93
2019-05-23T12:37:16.802Z,8.30
2019-05-23T12:39:26.304Z,8.30
2019-05-23T12:41:53.689Z,7.63
2019-05-23T12:44:20.552Z,7.90
2019-05-23T12:46:47.303Z,7.33
2019-05-23T12:49:28.943Z,7.70
2019-05-23T12:51:56.306Z,8.33
2019-05-23T12:54:24.129Z,8.40
2019-05-23T12:56:51.205Z,8.27
2019-05-23T12:59:18.774Z,6.90
2019-05-23T13:01:47.886Z,7.70
2019-05-23T13:04:15.152Z,6.80
2019-05-23T13:06:42.612Z,7.83
2019-05-23T13:09:10.134Z,8.80
2019-05-23T13:11:37.497Z,11.40
2019-05-23T13:14:05.745Z,11.70
2019-05-23T13:16:35.473Z,7.57
2019-05-23T13:19:02.355Z,7.00
2019-05-23T13:21:30.703Z,7.33
2019-05-23T13:23:57.869Z,7.20
2019-05-23T13:26:24.995Z,7.87
2019-05-23T13:28:51.700Z,7.10
2019-05-23T13:31:18.521Z,7.40
2019-05-23T13:33:45.457Z,7.70
2019-05-23T13:36:12.463Z,7.93
2019-05-23T13:38:39.949Z,7.23
2019-05-23T13:41:07.092Z,6.60
2019-05-23T13:43:33.819Z,6.37
2019-05-23T13:46:00.568Z,6.87
2019-05-23T13:48:30.294Z,6.67
2019-05-23T13:50:57.240Z,6.60
2019-05-23T13:53:24.001Z,6.63
2019-05-23T13:55:54.317Z,6.77
2019-05-23T13:58:21.371Z,7.13
2019-05-23T14:00:49.200Z,6.57
2019-05-23T14:03:16.256Z,7.30
2019-05-23T14:05:46.349Z,7.57
2019-05-23T14:08:13.637Z,6.43
2019-05-23T14:10:40.610Z,6.93
2019-05-23T14:13:07.416Z,7.50
2019-05-23T14:15:39.567Z,7.03
2019-05-23T14:18:06.820Z,7.40
2019-05-23T14:20:33.844Z,6.50
2019-05-23T14:23:06.439Z,7.33
2019-05-23T14:25:33.467Z,6.97
2019-05-23T14:28:07.319Z,7.20
2019-05-23T14:30:57.281Z,9.23
2019-05-23T14:33:44.583Z,6.80
2019-05-23T14:36:32.296Z,6.30
2019-05-23T14:39:00.053Z,6.40
2019-05-23T14:41:44.061Z,6.33
2019-05-23T14:43:57.877Z,5.40
2019-05-23T14:46:28.117Z,6.20
2019-05-23T14:48:59.263Z,6.20
2019-05-23T14:51:54.599Z,5.97
2019-05-23T14:54:29.870Z,5.07
2019-05-23T14:56:56.665Z,5.10
2019-05-23T14:59:26.009Z,4.50
2019-05-23T15:01:53.685Z,5.60
2019-05-23T15:04:20.441Z,4.97
2019-05-23T15:06:47.599Z,5.00
2019-05-23T15:09:14.364Z,5.30
2019-05-23T15:11:41.303Z,5.07
2019-05-23T15:14:09.838Z,5.77
2019-05-23T15:16:36.885Z,6.20
2019-05-23T15:19:07.014Z,6.03
2019-05-23T15:21:33.721Z,12.93
2019-05-23T15:24:01.402Z,6.60
2019-05-23T15:26:30.933Z,6.30
2019-05-23T15:28:58.573Z,7.10
2019-05-23T15:31:25.442Z,6.33
2019-05-23T15:33:52.901Z,6.70
2019-05-23T15:36:19.696Z,7.43
2019-05-23T15:38:46.516Z,7.63
2019-05-23T15:41:13.253Z,7.93
2019-05-23T15:43:40.041Z,8.03
2019-05-23T15:46:07.133Z,8.53
2019-05-23T15:48:33.868Z,7.30
2019-05-23T15:51:04.879Z,6.70
2019-05-23T15:53:56.231Z,7.50
2019-05-23T15:56:39.986Z,7.87
2019-05-23T15:59:31.806Z,7.80
2019-05-23T16:02:06.704Z,8.60
2019-05-23T16:04:33.435Z,7.53
2019-05-23T16:07:00.379Z,6.80
2019-05-23T16:09:31.017Z,6.20
2019-05-23T16:11:58.336Z,5.60
2019-05-23T16:14:26.082Z,7.70
2019-05-23T16:16:56.689Z,7.30
2019-05-23T16:19:24.119Z,8.43
2019-05-23T16:21:50.971Z,6.90
2019-05-23T16:24:18.312Z,7.47
2019-05-23T16:26:45.263Z,7.40
2019-05-23T16:29:13.332Z,6.70
2019-05-23T16:31:40.307Z,7.43
2019-05-23T16:34:07.337Z,7.90
2019-05-23T16:36:34.923Z,7.40
2019-05-23T16:39:01.856Z,7.70
2019-05-23T16:41:28.877Z,8.60
2019-05-23T16:43:56.242Z,7.87
2019-05-23T16:46:23.221Z,7.50
2019-05-23T16:48:52.801Z,7.93
2019-05-23T16:51:20.934Z,8.07
2019-05-23T16:53:48.286Z,9.60
2019-05-23T16:56:46.870Z,14.70
2019-05-23T16:59:22.433Z,9.50
2019-05-23T17:02:06.428Z,8.23
2019-05-23T17:05:09.946Z,8.50
2019-05-23T17:08:03.966Z,8.40
2019-05-23T17:10:55.874Z,11.33
2019-05-23T17:13:47.791Z,10.10
2019-05-23T17:16:27.684Z,9.60
2019-05-23T17:19:20.505Z,7.63
2019-05-23T17:22:08.194Z,7.10
2019-05-23T17:24:57.458Z,7.27
2019-05-23T17:27:43.126Z,6.80
2019-05-23T17:30:32.403Z,8.00
2019-05-23T17:32:59.788Z,11.13
2019-05-23T17:35:26.528Z,10.00
2019-05-23T17:37:53.426Z,9.67
2019-05-23T17:40:24.904Z,8.67
2019-05-23T17:42:49.401Z,7.77
2019-05-23T17:45:17.729Z,7.70
2019-05-23T17:47:44.657Z,9.90
2019-05-23T17:50:11.443Z,9.77
2019-05-23T17:52:38.195Z,8.70
2019-05-23T17:55:05.302Z,8.10
2019-05-23T17:57:32.274Z,11.70
2019-05-23T17:59:58.972Z,8.97
2019-05-23T18:02:26.429Z,9.57
2019-05-23T18:04:53.797Z,8.63
2019-05-23T18:07:20.848Z,7.80
2019-05-23T18:09:48.286Z,9.20
2019-05-23T18:12:15.145Z,7.70
2019-05-23T18:14:42.233Z,8.03
2019-05-23T18:17:09.055Z,8.07
2019-05-23T18:19:38.647Z,9.30
2019-05-23T18:22:07.641Z,8.17
2019-05-23T18:24:35.573Z,7.60
2019-05-23T18:27:03.371Z,7.10
2019-05-23T18:29:30.208Z,6.40
2019-05-23T18:31:58.906Z,7.17
2019-05-23T18:34:26.094Z,6.70
2019-05-23T18:36:53.070Z,6.73
2019-05-23T18:39:23.842Z,6.17
2019-05-23T18:41:50.922Z,6.53
2019-05-23T18:44:18.324Z,7.27
2019-05-23T18:46:48.947Z,6.77
2019-05-23T18:49:16.539Z,6.77
2019-05-23T18:51:44.041Z,6.23
2019-05-23T18:54:11.557Z,5.70
2019-05-23T18:56:38.350Z,6.20
2019-05-23T18:59:06.634Z,6.60
2019-05-23T19:01:34.445Z,6.20
2019-05-23T19:04:01.265Z,6.80
2019-05-23T19:06:28.771Z,6.17
2019-05-23T19:08:55.625Z,6.30
2019-05-23T19:11:24.578Z,6.83
2019-05-23T19:13:51.676Z,6.80
2019-05-23T19:16:18.685Z,6.30
2019-05-23T19:18:46.592Z,6.77
2019-05-23T19:21:14.137Z,7.00
2019-05-23T19:23:41.290Z,6.87
2019-05-23T19:26:08.459Z,5.60
2019-05-23T19:28:35.209Z,5.87
2019-05-23T19:31:02.311Z,6.37
2019-05-23T19:33:29.493Z,6.30
2019-05-23T19:35:56.782Z,5.90
2019-05-23T19:38:23.591Z,6.40
2019-05-23T19:40:50.859Z,7.17
2019-05-23T19:43:18.921Z,6.80
2019-05-23T19:45:46.444Z,6.00
2019-05-23T19:48:13.776Z,6.10
2019-05-23T19:50:41.208Z,7.10
2019-05-23T19:53:08.322Z,6.20
2019-05-23T19:55:35.851Z,6.07
2019-05-23T19:58:03.173Z,6.33
2019-05-23T20:00:31.037Z,6.33
2019-05-23T20:02:58.305Z,6.43
2019-05-23T20:05:28.591Z,6.90
2019-05-23T20:07:55.737Z,6.27
2019-05-23T20:10:23.298Z,6.80
2019-05-23T20:12:50.293Z,6.90
2019-05-23T20:15:17.166Z,6.10
2019-05-23T20:17:51.765Z,6.43
2019-05-23T20:20:19.954Z,6.57
2019-05-23T20:22:53.279Z,6.50
2019-05-23T20:25:20.213Z,6.60
2019-05-23T20:27:47.045Z,7.40
2019-05-23T20:30:38.308Z,7.17
2019-05-23T20:33:07.035Z,6.70
2019-05-23T20:35:33.784Z,7.00
2019-05-23T20:38:02.813Z,6.60
2019-05-23T20:40:33.230Z,7.10
2019-05-23T20:43:02.546Z,6.70
2019-05-23T20:45:29.499Z,6.87
2019-05-23T20:47:56.248Z,6.73
2019-05-23T20:50:23.419Z,6.73
2019-05-23T20:52:50.542Z,6.83
2019-05-23T20:55:17.497Z,6.53
2019-05-23T20:57:44.465Z,6.43
2019-05-23T21:00:18.916Z,6.50
2019-05-23T21:02:45.650Z,6.77
2019-05-23T21:05:12.407Z,6.47
2019-05-23T21:07:39.396Z,6.33
2019-05-23T21:10:06.172Z,6.50
2019-05-23T21:12:33.022Z,7.10
2019-05-23T21:15:00.169Z,6.90
2019-05-23T21:17:27.744Z,6.53
2019-05-23T21:19:55.760Z,7.10
2019-05-23T21:22:23.688Z,7.13
2019-05-23T21:24:50.714Z,6.47
2019-05-23T21:27:39.269Z,6.27
2019-05-23T21:30:07.439Z,6.80
2019-05-23T21:32:35.087Z,5.93
2019-05-23T21:35:04.966Z,6.77
2019-05-23T21:37:32.801Z,6.77
2019-05-23T21:39:59.726Z,6.40
2019-05-23T21:42:44.987Z,6.87
2019-05-23T21:44:59.154Z,6.87
2019-05-23T21:47:25.870Z,6.07
2019-05-23T21:49:52.704Z,6.60
2019-05-23T21:52:19.565Z,7.10
2019-05-23T21:54:46.424Z,6.37
2019-05-23T21:57:16.246Z,6.97
2019-05-23T21:59:42.806Z,6.57
2019-05-23T22:02:18.339Z,7.00
2019-05-23T22:04:56.379Z,6.27
2019-05-23T22:07:23.343Z,6.80
2019-05-23T22:10:12.744Z,6.67
2019-05-23T22:13:14.035Z,7.07
2019-05-23T22:15:56.415Z,6.80
2019-05-23T22:18:59.207Z,6.63
2019-05-23T22:21:36.811Z,6.57
2019-05-23T22:24:06.540Z,6.00
2019-05-23T22:26:33.742Z,7.00
2019-05-23T22:29:00.478Z,6.93
2019-05-23T22:31:27.215Z,6.80
2019-05-23T22:34:00.247Z,6.70
2019-05-23T22:36:27.026Z,6.70
2019-05-23T22:38:53.883Z,6.93
2019-05-23T22:41:20.885Z,7.00
2019-05-23T22:43:47.581Z,6.47
2019-05-23T22:46:15.143Z,6.27
2019-05-23T22:48:41.895Z,6.40
2019-05-23T22:51:08.610Z,7.13
2019-05-23T22:53:38.395Z,6.47
2019-05-23T22:56:05.234Z,6.80
2019-05-23T22:58:32.228Z,7.10
2019-05-23T23:00:59.070Z,6.80
2019-05-23T23:03:25.783Z,7.37
2019-05-23T23:05:52.645Z,6.20
2019-05-23T23:08:19.975Z,6.93
2019-05-23T23:10:47.674Z,6.87
2019-05-23T23:13:14.796Z,7.23
2019-05-23T23:15:44.997Z,7.10
2019-05-23T23:18:11.781Z,6.93
2019-05-23T23:20:38.525Z,6.40
2019-05-23T23:23:05.447Z,6.60
2019-05-23T23:25:32.293Z,6.77
2019-05-23T23:27:59.012Z,6.97
2019-05-23T23:30:29.071Z,6.43
2019-05-23T23:32:55.779Z,8.00
2019-05-23T23:35:22.620Z,6.30
2019-05-23T23:37:49.322Z,6.40
2019-05-23T23:40:16.523Z,6.40
2019-05-23T23:42:43.585Z,6.33
2019-05-23T23:45:29.077Z,6.40
2019-05-23T23:48:14.059Z,6.63
2019-05-23T23:50:58.955Z,6.47
2019-05-23T23:53:44.134Z,6.23
2019-05-23T23:56:29.656Z,6.63
2019-05-23T23:58:56.047Z,7.57
